• Join FlightAware (Why Join?)
  • Login
  • US Flag 
12:13AM EST


 

Airport Tracker/Info


-or-


 

Live Flight TrackerFlight Track Log ✈ ASQ4633 ✈ 24-Apr-2013 ✈ KEWR - KBTV

Flight Track Log - Related Links

Times and Time Zones

All times are in EDT time to prevent confusion due to time zone crossing. See the ASQ4633 flight status page for this flight to view local times or setup timezone preferences in your user account.

Time Position Orientation Groundspeed Altitude Reporting Facility
EDT Latitude Longitude Course Direction KTS MPH feet Rate Location/Type
02:11PM 40.6333 -74.2167 48° Northeast 219 252 2,900  Level New York TRACON
02:12PM 40.6333 -74.2833 270° West 263 303 5,000 1,860 Climbing New York TRACON
02:13PM 40.7167 -74.2500 17° North 301 346 6,700 2,100 Climbing New York TRACON
02:14PM 40.9797 -73.8370 37° Northeast  Level FlightAware Approximate
02:14PM 40.7500 -74.1500 66° East 310 357 9,200  Level New York TRACON
02:15PM 41.0573 -73.7523 40° Northeast  Level FlightAware Approximate
02:16PM 41.1340 -73.6662 27° Northeast  Level FlightAware Approximate
02:17PM 41.2134 -73.5883 48° Northeast  Level FlightAware Approximate
02:17PM 40.8508 -73.8997 62° Northeast 351 404 11,500  Level Boston Center
02:18PM 40.9169 -73.7858 52° Northeast 370 426 12,500 1,080 Climbing Boston Center
02:19PM 41.0117 -73.7081 32° Northeast 377 434 13,700 1,320 Climbing Boston Center
02:20PM 41.1125 -73.6219 33° Northeast 389 448 15,200 1,500 Climbing Boston Center
02:21PM 41.1925 -73.5544 32° Northeast 389 448 16,800 1,560 Climbing Boston Center
02:22PM 41.2933 -73.4678 33° Northeast 389 448 18,400 1,260 Climbing Boston Center
02:23PM 41.3814 -73.4000 30° Northeast 395 455 19,400 1,140 Climbing Boston Center
02:24PM 41.4736 -73.3239 32° Northeast 395 455 20,700 1,320 Climbing Boston Center
02:25PM 41.5825 -73.2617 23° Northeast 395 455 22,100 1,140 Climbing Boston Center
02:26PM 41.6908 -73.2714 356° North 375 432 23,000 420 Climbing Boston Center
02:27PM 41.8033 -73.2783 357° North 381 438 23,000  Level Boston Center
02:28PM 41.9158 -73.2856 357° North 393 452 23,000  Level Boston Center
02:29PM 42.0303 -73.2925 357° North 399 459 23,000  Level Boston Center
02:30PM 42.1428 -73.2969 358° North 405 466 23,000  Level Boston Center
02:31PM 42.2575 -73.3069 356° North 405 466 23,000  Level Boston Center
02:32PM 42.3658 -73.3028 North 411 473 23,000  Level Boston Center
02:33PM 42.4783 -73.3100 357° North 411 473 23,000  Level Boston Center
02:34PM 42.6053 -73.3258 355° North 411 473 23,000  Level Boston Center
02:35PM 42.7200 -73.3331 357° North 411 473 23,000  Level Boston Center
02:36PM 42.8367 -73.3375 358° North 411 473 23,000  Level Boston Center
02:37PM 42.9533 -73.3450 357° North 416 479 23,000 -120 Level Boston Center
02:38PM 43.0700 -73.3383 North 421 484 22,800 -1,080 Descending Boston Center
02:39PM 43.1869 -73.3256 North 421 484 20,900 -1,860 Descending Boston Center
02:40PM 43.3036 -73.3131 North 416 479 19,100 -960 Descending Boston Center
02:41PM 43.4122 -73.2975 North 410 472 19,000 -600 Descending Boston Center
02:42PM 43.5206 -73.2847 North 398 458 18,000 -1,500 Descending Boston Center
02:43PM 43.6247 -73.2747 North 386 444 16,100 -2,100 Descending Boston Center
02:44PM 43.7250 -73.2647 North 378 435 13,800 -2,160 Descending Boston Center
02:45PM 43.8272 -73.2517 North 362 417 11,800 -1,500 Descending Boston Center
02:46PM 43.9231 -73.2386 North 356 410 10,900 -1,020 Descending Boston Center
02:47PM 44.0128 -73.2397 359° North 335 386 9,800 -1,440 Descending Boston Center
02:48PM 44.0917 -73.2581 351° North 305 351 8,100 -1,740 Descending Boston Center
02:49PM 44.1708 -73.2767 350° North 288 331 6,400 -1,680 Descending Boston Center
02:50PM 44.2456 -73.2978 349° North 276 318 4,800 -1,260 Descending Boston Center
02:51PM 44.3164 -73.3192 348° North 265 305 3,900 -420 Descending Boston Center
02:52PM 44.3828 -73.3378 349° North 255 293 4,000  Climbing Boston Center
02:53PM 44.4514 -73.3561 349° North 250 288 4,000 -180 Level Boston Center
02:54PM 44.5161 -73.3631 356° North 245 282 3,700 -300 Descending Boston Center